createdAt,value
2019-03-06T00:06:16.610Z,100271.23
2019-03-06T00:08:40.461Z,100267.45
2019-03-06T00:11:53.262Z,100274.69
2019-03-06T00:14:22.691Z,100265.48
2019-03-06T00:16:51.845Z,100273.73
2019-03-06T00:19:26.161Z,100272.36
2019-03-06T00:21:58.102Z,100273.67
2019-03-06T00:24:33.565Z,100267.93
2019-03-06T00:27:04.109Z,100256.20
2019-03-06T00:29:33.320Z,100261.68
2019-03-06T00:32:04.414Z,100254.57
2019-03-06T00:34:35.213Z,100256.28
2019-03-06T00:37:08.126Z,100253.63
2019-03-06T00:39:55.061Z,100256.55
2019-03-06T00:42:24.390Z,100250.66
2019-03-06T00:48:26.521Z,100240.64
2019-03-06T00:50:56.290Z,100233.19
2019-03-06T00:54:13.518Z,100230.19
2019-03-06T00:56:49.927Z,100228.48
2019-03-06T00:59:25.760Z,100220.69
2019-03-06T01:01:56.326Z,100219.12
2019-03-06T01:04:26.515Z,100205.20
2019-03-06T01:06:55.824Z,100205.27
2019-03-06T01:09:25.050Z,100199.19
2019-03-06T01:11:54.118Z,100203.63
2019-03-06T01:14:23.292Z,100201.36
2019-03-06T01:16:52.502Z,100198.48
2019-03-06T01:19:21.546Z,100205.69
2019-03-06T01:21:50.695Z,100206.77
2019-03-06T01:24:19.911Z,100197.30
2019-03-06T01:26:48.971Z,100198.45
2019-03-06T01:29:18.117Z,100201.25
2019-03-06T01:31:47.258Z,100188.62
2019-03-06T01:34:28.272Z,100182.37
2019-03-06T01:37:22.702Z,100180.43
2019-03-06T01:40:02.220Z,100165.83
2019-03-06T01:42:39.558Z,100174.67
2019-03-06T01:45:10.728Z,100167.30
2019-03-06T01:47:39.880Z,100165.83
2019-03-06T01:50:15.111Z,100161.16
2019-03-06T01:52:44.227Z,100154.83
2019-03-06T01:55:14.703Z,100158.38
2019-03-06T01:57:43.834Z,100146.11
2019-03-06T02:00:16.104Z,100143.35
2019-03-06T02:02:45.313Z,100148.16
2019-03-06T02:05:14.419Z,100140.87
2019-03-06T02:07:43.603Z,100141.22
2019-03-06T02:10:13.079Z,100133.48
2019-03-06T02:12:42.221Z,100131.02
2019-03-06T02:15:12.795Z,100123.89
2019-03-06T02:17:41.867Z,100117.42
2019-03-06T02:20:12.469Z,100123.19
2019-03-06T02:22:41.635Z,100109.69
2019-03-06T02:25:10.814Z,100100.70
2019-03-06T02:27:39.912Z,100110.78
2019-03-06T02:30:12.484Z,100097.41
2019-03-06T02:32:41.567Z,100099.94
2019-03-06T02:35:10.777Z,100102.81
2019-03-06T02:37:39.860Z,100075.94
2019-03-06T02:40:09.035Z,100071.75
2019-03-06T02:42:38.220Z,100077.71
2019-03-06T02:45:08.780Z,100073.38
2019-03-06T02:47:37.896Z,100062.22
2019-03-06T02:50:08.297Z,100060.80
2019-03-06T02:52:37.490Z,100059.27
2019-03-06T02:55:07.001Z,100051.80
2019-03-06T02:57:36.089Z,100052.70
2019-03-06T03:00:24.829Z,100055.07
2019-03-06T03:03:12.197Z,100050.02
2019-03-06T03:05:49.944Z,100047.17
2019-03-06T03:08:19.096Z,100044.34
2019-03-06T03:10:48.235Z,100028.53
2019-03-06T03:13:17.412Z,100027.02
2019-03-06T03:15:46.561Z,100020.42
2019-03-06T03:18:15.654Z,100020.44
2019-03-06T03:20:44.848Z,100021.00
2019-03-06T03:23:14.113Z,100020.98
2019-03-06T03:25:43.402Z,100023.59
2019-03-06T03:28:12.598Z,100019.07
2019-03-06T03:30:41.755Z,100008.99
2019-03-06T03:33:11.002Z,100003.36
2019-03-06T03:35:40.369Z,100000.56
2019-03-06T03:38:09.621Z,100000.07
2019-03-06T03:40:38.912Z,99988.10
2019-03-06T03:43:08.133Z,99990.50
2019-03-06T03:45:37.358Z,99981.99
2019-03-06T03:48:07.082Z,99984.12
2019-03-06T03:50:36.567Z,99984.97
2019-03-06T03:53:05.740Z,99988.66
2019-03-06T03:55:34.935Z,99982.41
2019-03-06T03:58:04.349Z,99996.34
2019-03-06T04:00:33.533Z,99994.33
2019-03-06T04:03:02.915Z,99994.33
2019-03-06T04:05:32.136Z,99988.16
2019-03-06T04:08:01.448Z,99981.77
2019-03-06T04:10:30.794Z,99967.17
2019-03-06T04:13:00.127Z,99976.04
2019-03-06T04:15:29.288Z,99971.77
2019-03-06T04:17:58.460Z,99976.97
2019-03-06T04:20:27.894Z,99969.36
2019-03-06T04:22:57.042Z,99959.70
2019-03-06T04:25:26.320Z,99960.95
2019-03-06T04:27:55.457Z,99953.81
2019-03-06T04:30:24.735Z,99957.40
2019-03-06T04:32:54.045Z,99952.17
2019-03-06T04:35:23.334Z,99961.33
2019-03-06T04:37:52.506Z,99950.25
2019-03-06T04:40:21.631Z,99935.91
2019-03-06T04:42:50.779Z,99929.03
2019-03-06T04:45:19.906Z,99930.02
2019-03-06T04:47:49.232Z,99939.20
2019-03-06T04:50:50.394Z,99922.95
2019-03-06T04:53:22.266Z,99911.08
2019-03-06T04:55:55.639Z,99912.89
2019-03-06T04:58:34.256Z,99912.44
2019-03-06T05:01:21.104Z,99904.48
2019-03-06T05:05:33.472Z,99908.75
2019-03-06T05:07:04.832Z,99899.16
2019-03-06T05:09:33.762Z,99895.33
2019-03-06T05:12:10.899Z,99881.73
2019-03-06T05:14:47.174Z,99871.51
2019-03-06T05:17:36.436Z,99869.03
2019-03-06T05:20:13.643Z,99863.86
2019-03-06T05:23:00.957Z,99851.32
2019-03-06T05:25:49.642Z,99848.09
2019-03-06T05:28:42.539Z,99838.05
2019-03-06T05:31:18.400Z,99842.09
2019-03-06T05:33:51.945Z,99837.45
2019-03-06T05:36:47.476Z,99821.26
2019-03-06T05:39:16.611Z,99834.43
2019-03-06T05:41:45.714Z,99824.49
2019-03-06T05:44:15.097Z,99827.19
2019-03-06T05:46:44.337Z,99821.30
2019-03-06T05:49:15.880Z,99825.77
2019-03-06T05:51:44.995Z,99810.41
2019-03-06T05:54:14.025Z,99806.85
2019-03-06T05:57:12.430Z,99801.88
2019-03-06T05:59:44.413Z,99796.77
2019-03-06T06:02:14.115Z,99783.06
2019-03-06T06:04:42.992Z,99781.03
2019-03-06T06:10:25.253Z,99786.27
2019-03-06T06:13:21.219Z,99780.47
2019-03-06T06:15:48.412Z,99785.34
2019-03-06T06:21:49.628Z,99777.64
2019-03-06T06:29:15.915Z,99755.66
2019-03-06T06:35:22.561Z,99744.86
2019-03-06T06:38:15.853Z,99739.81
2019-03-06T06:40:43.065Z,99717.72
2019-03-06T06:44:01.469Z,99726.34
2019-03-06T06:49:57.063Z,99701.17
2019-03-06T06:53:25.339Z,99690.48
2019-03-06T06:56:18.633Z,99681.64
2019-03-06T06:59:32.107Z,99690.45
2019-03-06T07:02:38.923Z,99703.23
2019-03-06T07:05:27.993Z,99706.34
2019-03-06T07:08:16.147Z,99701.08
2019-03-06T07:11:07.283Z,99705.28
2019-03-06T07:14:08.094Z,99697.63
2019-03-06T07:17:11.525Z,99694.48
2019-03-06T07:19:49.589Z,99683.17
2019-03-06T07:22:46.692Z,99679.77
2019-03-06T07:25:35.283Z,99676.38
2019-03-06T07:28:10.509Z,99667.84
2019-03-06T07:30:57.281Z,99673.84
2019-03-06T07:33:37.997Z,99674.84
2019-03-06T07:36:32.000Z,99672.65
2019-03-06T07:39:10.322Z,99673.70
2019-03-06T07:41:54.657Z,99669.98
2019-03-06T07:44:42.937Z,99650.89
2019-03-06T07:47:31.825Z,99651.43
2019-03-06T07:50:13.923Z,99646.03
2019-03-06T07:53:07.294Z,99641.33
2019-03-06T07:55:53.861Z,99631.20
2019-03-06T07:58:51.284Z,99625.29
2019-03-06T08:01:20.527Z,99604.83
2019-03-06T08:04:11.984Z,99609.85
2019-03-06T08:06:42.705Z,99607.27
2019-03-06T08:09:16.018Z,99599.22
2019-03-06T08:12:04.263Z,99614.61
2019-03-06T08:14:43.352Z,99616.19
2019-03-06T08:17:46.491Z,99609.15
2019-03-06T08:20:46.681Z,99611.94
2019-03-06T08:23:30.015Z,99602.41
2019-03-06T08:25:59.355Z,99595.67
2019-03-06T08:28:28.520Z,99593.13
2019-03-06T08:31:17.086Z,99588.55
2019-03-06T08:33:46.182Z,99584.16
2019-03-06T08:36:15.374Z,99573.13
2019-03-06T08:38:44.507Z,99553.89
2019-03-06T08:41:13.673Z,99551.03
2019-03-06T08:43:42.837Z,99544.59
2019-03-06T08:46:33.910Z,99537.70
2019-03-06T08:49:24.546Z,99530.59
2019-03-06T08:52:03.354Z,99540.08
2019-03-06T08:54:48.050Z,99531.62
2019-03-06T08:57:34.721Z,99527.91
2019-03-06T09:00:31.693Z,99537.53
2019-03-06T09:03:35.934Z,99528.03
2019-03-06T09:06:21.706Z,99513.50
2019-03-06T09:09:02.187Z,99519.33
2019-03-06T09:11:42.713Z,99514.02
2019-03-06T09:14:22.492Z,99506.59
2019-03-06T09:17:00.751Z,99501.48
2019-03-06T09:19:43.171Z,99498.59
2019-03-06T09:22:18.503Z,99502.53
2019-03-06T09:25:06.665Z,99481.98
2019-03-06T09:28:04.032Z,99491.44
2019-03-06T09:30:41.072Z,99484.32
2019-03-06T09:33:34.341Z,99507.56
2019-03-06T09:36:25.251Z,99492.33
2019-03-06T09:39:05.413Z,99482.87
2019-03-06T09:41:59.589Z,99489.18
2019-03-06T09:44:59.193Z,99482.53
2019-03-06T09:47:50.052Z,99483.80
2019-03-06T09:50:25.869Z,99491.10
2019-03-06T09:53:29.078Z,99506.30
2019-03-06T09:56:06.271Z,99498.63
2019-03-06T09:58:47.781Z,99511.50
2019-03-06T10:01:51.307Z,99505.88
2019-03-06T10:04:45.393Z,99501.00
2019-03-06T10:07:45.510Z,99478.09
2019-03-06T10:14:20.510Z,99474.33
2019-03-06T10:17:25.032Z,99454.03
2019-03-06T10:19:56.939Z,99466.59
2019-03-06T10:22:26.270Z,99447.14
2019-03-06T10:24:55.729Z,99438.95
2019-03-06T10:31:38.580Z,99439.02
2019-03-06T10:34:08.299Z,99428.16
2019-03-06T10:37:21.565Z,99425.34
2019-03-06T10:40:21.878Z,99413.91
2019-03-06T10:42:50.903Z,99401.70
2019-03-06T10:45:20.013Z,99395.28
2019-03-06T10:47:48.996Z,99398.59
2019-03-06T10:50:26.294Z,99392.23
2019-03-06T10:52:47.096Z,99398.77
2019-03-06T10:55:16.329Z,99401.20
2019-03-06T10:57:47.972Z,99386.51
2019-03-06T11:00:22.675Z,99388.48
2019-03-06T11:02:51.598Z,99379.86
2019-03-06T11:05:31.337Z,99376.30
2019-03-06T11:08:03.557Z,99368.42
2019-03-06T11:10:33.806Z,99374.00
2019-03-06T11:13:03.494Z,99373.63
2019-03-06T11:15:32.636Z,99366.97
2019-03-06T11:18:01.840Z,99364.48
2019-03-06T11:20:31.481Z,99371.16
2019-03-06T11:23:01.698Z,99361.21
2019-03-06T11:25:46.377Z,99351.05
2019-03-06T11:28:54.723Z,99346.81
2019-03-06T11:31:26.086Z,99337.77
2019-03-06T11:33:58.410Z,99337.51
2019-03-06T11:36:27.698Z,99329.84
2019-03-06T11:39:03.139Z,99331.88
2019-03-06T11:41:32.333Z,99324.09
2019-03-06T11:44:04.726Z,99321.12
2019-03-06T11:46:33.846Z,99300.89
2019-03-06T11:49:03.772Z,99308.09
2019-03-06T11:51:32.009Z,99308.91
2019-03-06T11:54:33.095Z,99303.09
2019-03-06T11:57:02.150Z,99298.00
2019-03-06T11:59:31.088Z,99301.97
2019-03-06T12:02:00.055Z,99296.94
2019-03-06T12:04:29.441Z,99295.77
2019-03-06T12:07:24.343Z,99291.52
2019-03-06T12:09:53.061Z,99280.62
2019-03-06T12:12:38.982Z,99277.42
2019-03-06T12:15:10.575Z,99269.41
2019-03-06T12:17:39.725Z,99275.19
2019-03-06T12:20:08.920Z,99271.28
2019-03-06T12:23:21.992Z,99268.63
2019-03-06T12:26:19.280Z,99277.97
2019-03-06T12:29:06.367Z,99270.18
2019-03-06T12:31:51.303Z,99266.69
2019-03-06T12:34:54.579Z,99239.84
2019-03-06T12:37:50.896Z,99233.08
2019-03-06T12:41:09.154Z,99234.34
2019-03-06T12:43:38.369Z,99239.36
2019-03-06T12:46:24.448Z,99230.70
2019-03-06T12:49:16.576Z,99230.28
2019-03-06T12:51:54.357Z,99222.54
2019-03-06T12:54:17.347Z,99227.80
2019-03-06T12:56:48.615Z,99219.78
2019-03-06T12:59:17.704Z,99221.06
2019-03-06T13:01:46.674Z,99217.97
2019-03-06T13:04:27.298Z,99200.48
2019-03-06T13:07:59.558Z,99196.62
2019-03-06T13:10:12.355Z,99200.05
2019-03-06T13:12:41.248Z,99196.40
2019-03-06T13:15:12.911Z,99182.89
2019-03-06T13:17:41.939Z,99168.83
2019-03-06T13:20:11.305Z,99171.34
2019-03-06T13:22:40.473Z,99161.51
2019-03-06T13:25:09.980Z,99169.95
2019-03-06T13:27:38.944Z,99168.92
2019-03-06T13:30:10.121Z,99157.89
2019-03-06T13:32:58.401Z,99138.34
2019-03-06T13:35:27.414Z,99139.44
2019-03-06T13:37:56.383Z,99128.23
2019-03-06T13:41:19.541Z,99126.17
2019-03-06T13:44:06.712Z,99125.14
2019-03-06T13:46:58.066Z,99131.74
2019-03-06T13:49:38.963Z,99119.33
2019-03-06T13:52:13.269Z,99118.67
2019-03-06T13:54:49.305Z,99131.83
2019-03-06T13:57:20.264Z,99123.27
2019-03-06T13:59:56.288Z,99116.61
2019-03-06T14:02:43.711Z,99115.39
2019-03-06T14:05:15.997Z,99110.91
2019-03-06T14:07:56.740Z,99124.95
2019-03-06T14:10:37.667Z,99114.64
2019-03-06T14:13:25.943Z,99110.13
2019-03-06T14:16:13.326Z,99109.80
2019-03-06T14:19:36.661Z,99110.52
2019-03-06T14:22:01.014Z,99094.87
2019-03-06T14:24:49.460Z,99093.37
2019-03-06T14:27:35.503Z,99093.13
2019-03-06T14:30:43.161Z,99093.23
2019-03-06T14:33:13.162Z,99100.49
2019-03-06T14:35:56.761Z,99082.45
2019-03-06T14:38:34.005Z,99078.87
2019-03-06T14:41:13.089Z,99079.95
2019-03-06T14:43:56.262Z,99088.86
2019-03-06T14:46:41.318Z,99095.42
2019-03-06T14:49:38.430Z,99069.47
2019-03-06T14:52:31.421Z,99075.62
2019-03-06T14:55:33.097Z,99082.22
2019-03-06T14:58:13.436Z,99082.81
2019-03-06T15:01:21.891Z,99074.39
2019-03-06T15:04:15.034Z,99065.49
2019-03-06T15:06:59.640Z,99069.23
2019-03-06T15:10:10.537Z,99064.25
2019-03-06T15:12:51.060Z,99072.66
2019-03-06T15:15:50.523Z,99057.20
2019-03-06T15:18:54.529Z,99052.29
2019-03-06T15:21:42.935Z,99047.89
2019-03-06T15:24:53.894Z,99036.40
2019-03-06T15:27:55.624Z,99045.44
2019-03-06T15:30:23.452Z,99044.34
2019-03-06T15:33:32.032Z,99039.04
2019-03-06T15:36:24.031Z,99020.82
2019-03-06T15:39:18.596Z,99018.44
2019-03-06T15:42:02.233Z,99026.11
2019-03-06T15:44:46.010Z,99019.59
2019-03-06T15:47:21.705Z,99014.07
2019-03-06T15:49:55.547Z,99006.20
2019-03-06T15:52:27.478Z,99005.36
2019-03-06T15:55:14.743Z,99004.91
2019-03-06T15:57:49.613Z,98995.66
2019-03-06T16:00:45.678Z,98991.19
2019-03-06T16:03:41.343Z,98991.30
2019-03-06T16:06:20.597Z,99002.30
2019-03-06T16:09:26.884Z,99001.27
2019-03-06T16:11:55.959Z,98999.81
2019-03-06T16:15:01.808Z,98995.66
2019-03-06T16:17:56.279Z,98985.52
2019-03-06T16:20:54.201Z,99012.71
2019-03-06T16:23:27.650Z,98979.78
2019-03-06T16:26:04.272Z,98983.11
2019-03-06T16:29:07.347Z,98984.02
2019-03-06T16:31:57.844Z,98976.42
2019-03-06T16:37:46.681Z,98981.68
2019-03-06T16:40:30.543Z,98981.18
2019-03-06T16:43:28.881Z,98989.14
2019-03-06T16:46:51.001Z,98974.05
2019-03-06T16:48:55.850Z,98973.55
2019-03-06T16:51:25.162Z,98972.59
2019-03-06T16:53:54.575Z,98964.52
2019-03-06T16:56:23.813Z,98966.58
2019-03-06T16:58:53.343Z,98964.16
2019-03-06T17:01:22.568Z,98961.77
2019-03-06T17:03:51.871Z,98964.61
2019-03-06T17:06:21.876Z,98959.13
2019-03-06T17:08:51.130Z,98968.94
2019-03-06T17:15:52.775Z,98967.89
2019-03-06T17:19:12.292Z,98948.15
2019-03-06T17:22:16.367Z,98955.30
2019-03-06T17:24:58.109Z,98958.62
2019-03-06T17:27:43.636Z,98963.11
2019-03-06T17:30:17.650Z,98954.98
2019-03-06T17:33:00.443Z,98954.64
2019-03-06T17:35:30.042Z,98951.84
2019-03-06T17:38:51.157Z,98961.34
2019-03-06T17:41:20.099Z,98961.94
2019-03-06T17:44:36.833Z,98953.44
2019-03-06T17:47:36.425Z,98966.77
2019-03-06T17:50:08.827Z,98955.38
2019-03-06T17:53:01.804Z,98955.16
2019-03-06T17:55:30.724Z,98946.95
2019-03-06T17:58:01.760Z,98952.56
2019-03-06T18:00:38.899Z,98964.84
2019-03-06T18:03:07.676Z,98950.22
2019-03-06T18:06:04.462Z,98958.91
2019-03-06T18:08:43.156Z,98939.22
2019-03-06T18:11:27.077Z,98936.55
2019-03-06T18:14:21.072Z,98930.03
2019-03-06T18:16:50.162Z,98935.48
2019-03-06T18:19:19.067Z,98934.43
2019-03-06T18:21:48.119Z,98928.75
2019-03-06T18:24:17.074Z,98931.91
2019-03-06T18:27:02.140Z,98930.98
2019-03-06T18:29:31.002Z,98941.86
2019-03-06T18:31:59.928Z,98929.20
2019-03-06T18:34:30.372Z,98924.38
2019-03-06T18:37:29.125Z,98928.39
2019-03-06T18:43:55.021Z,98927.42
2019-03-06T18:49:26.341Z,98927.28
2019-03-06T18:52:03.514Z,98929.39
2019-03-06T18:54:32.420Z,98929.48
2019-03-06T18:57:05.159Z,98928.13
2019-03-06T19:00:01.784Z,98922.09
2019-03-06T19:02:33.878Z,98923.78
2019-03-06T19:05:03.313Z,98926.58
2019-03-06T19:07:32.719Z,98930.84
2019-03-06T19:10:02.135Z,98927.00
2019-03-06T19:14:13.080Z,98917.19
2019-03-06T19:16:30.758Z,98918.68
2019-03-06T19:18:59.870Z,98918.63
2019-03-06T19:21:28.815Z,98914.98
2019-03-06T19:23:57.781Z,98913.02
2019-03-06T19:27:15.304Z,98928.88
2019-03-06T19:30:05.475Z,98914.05
2019-03-06T19:33:21.246Z,98907.64
2019-03-06T19:46:53.076Z,98901.83
2019-03-06T19:49:22.108Z,98905.63
2019-03-06T19:51:51.881Z,98903.89
2019-03-06T19:54:20.181Z,98900.72
2019-03-06T19:56:49.216Z,98896.27
2019-03-06T19:59:45.827Z,98898.06
2019-03-06T20:02:16.123Z,98895.43
2019-03-06T20:05:24.048Z,98896.84
2019-03-06T20:08:31.832Z,98890.38
2019-03-06T20:11:13.545Z,98889.20
2019-03-06T20:14:37.721Z,98894.83
2019-03-06T20:17:21.675Z,98888.27
2019-03-06T20:20:09.786Z,98886.31
2019-03-06T20:22:38.788Z,98876.95
2019-03-06T20:25:07.968Z,98873.70
2019-03-06T20:27:38.848Z,98872.54
2019-03-06T20:33:42.355Z,98864.53
2019-03-06T20:36:33.773Z,98871.86
2019-03-06T20:40:27.605Z,98867.59
2019-03-06T20:42:54.411Z,98852.38
2019-03-06T20:45:26.072Z,98854.53
2019-03-06T20:47:54.983Z,98858.52
2019-03-06T20:51:00.484Z,98853.88
2019-03-06T20:54:18.277Z,98856.41
2019-03-06T21:00:21.222Z,98852.73
2019-03-06T21:03:29.828Z,98850.28
2019-03-06T21:06:06.010Z,98842.64
2019-03-06T21:08:34.889Z,98845.59
2019-03-06T21:11:03.907Z,98848.37
2019-03-06T21:13:32.834Z,98846.31
2019-03-06T21:16:04.756Z,98845.28
2019-03-06T21:18:39.623Z,98840.46
2019-03-06T21:24:41.047Z,98835.23
2019-03-06T21:27:24.551Z,98838.12
2019-03-06T21:29:54.179Z,98831.29
2019-03-06T21:32:23.753Z,98823.77
2019-03-06T21:34:52.959Z,98829.16
2019-03-06T21:37:22.387Z,98828.17
2019-03-06T21:39:51.923Z,98822.64
2019-03-06T21:42:21.261Z,98824.24
2019-03-06T21:44:50.705Z,98825.14
2019-03-06T21:47:20.059Z,98825.09
2019-03-06T21:49:51.181Z,98817.92
2019-03-06T21:52:20.674Z,98820.17
2019-03-06T21:54:50.047Z,98819.20
2019-03-06T21:57:19.395Z,98816.30
2019-03-06T21:59:48.775Z,98816.11
2019-03-06T22:02:18.296Z,98813.59
2019-03-06T22:04:47.653Z,98806.38
2019-03-06T22:07:17.107Z,98806.48
2019-03-06T22:09:46.362Z,98806.73
2019-03-06T22:12:15.715Z,98797.81
2019-03-06T22:14:45.200Z,98797.92
2019-03-06T22:17:14.597Z,98796.89
2019-03-06T22:19:44.049Z,98795.77
2019-03-06T22:22:13.538Z,98786.60
2019-03-06T22:24:42.925Z,98778.01
2019-03-06T22:27:12.172Z,98781.05
2019-03-06T22:29:41.572Z,98780.14
2019-03-06T22:32:10.961Z,98774.72
2019-03-06T22:34:40.380Z,98769.48
2019-03-06T22:37:09.846Z,98767.98
2019-03-06T22:39:39.154Z,98765.70
2019-03-06T22:42:08.678Z,98764.18
2019-03-06T22:44:38.024Z,98763.40
2019-03-06T22:47:07.561Z,98756.00
2019-03-06T22:49:36.886Z,98755.98
2019-03-06T22:52:06.484Z,98744.37
2019-03-06T22:54:38.527Z,98741.56
2019-03-06T22:57:07.944Z,98732.06
2019-03-06T22:59:37.479Z,98734.54
2019-03-06T23:02:06.970Z,98724.19
2019-03-06T23:04:36.356Z,98726.09
2019-03-06T23:07:05.799Z,98722.11
2019-03-06T23:09:35.287Z,98716.55
2019-03-06T23:12:04.745Z,98723.34
2019-03-06T23:14:34.050Z,98722.48
2019-03-06T23:17:03.401Z,98717.06
2019-03-06T23:19:32.897Z,98712.41
2019-03-06T23:22:02.326Z,98704.37
2019-03-06T23:24:31.663Z,98718.33
2019-03-06T23:27:00.926Z,98703.83
2019-03-06T23:29:30.287Z,98694.20
2019-03-06T23:32:00.030Z,98686.20
2019-03-06T23:34:29.447Z,98677.13
2019-03-06T23:36:58.795Z,98674.23
2019-03-06T23:39:28.136Z,98672.64
2019-03-06T23:41:57.589Z,98669.74
2019-03-06T23:44:26.906Z,98674.84
2019-03-06T23:46:56.677Z,98667.32
2019-03-06T23:49:26.235Z,98670.88
2019-03-06T23:52:10.633Z,98662.47
2019-03-06T23:54:40.081Z,98662.41
2019-03-06T23:57:09.685Z,98667.64
2019-03-06T23:59:39.140Z,98658.89
